createdAt,value
2022-10-12T00:02:07.249Z,101764.00
2022-10-12T00:04:33.863Z,101703.72
2022-10-12T00:07:00.361Z,101715.47
2022-10-12T00:09:26.846Z,101766.88
2022-10-12T00:11:53.447Z,101809.50
2022-10-12T00:14:19.986Z,101751.91
2022-10-12T00:16:46.466Z,101801.41
2022-10-12T00:19:13.386Z,101797.22
2022-10-12T00:21:40.162Z,101805.81
2022-10-12T00:24:06.892Z,101755.91
2022-10-12T00:26:33.739Z,101804.56
2022-10-12T00:29:01.508Z,101763.00
2022-10-12T00:31:28.921Z,101784.63
2022-10-12T00:33:56.177Z,101799.16
2022-10-12T00:36:25.829Z,101806.06
2022-10-12T00:38:53.889Z,101796.84
2022-10-12T00:41:24.063Z,101786.50
2022-10-12T00:43:56.829Z,101801.69
2022-10-12T00:46:24.565Z,101804.94
2022-10-12T00:48:55.322Z,101763.41
2022-10-12T00:51:22.676Z,101805.59
2022-10-12T00:53:54.994Z,101777.75
2022-10-12T00:56:24.624Z,101807.00
2022-10-12T00:58:52.033Z,101817.72
2022-10-12T01:01:18.762Z,101811.94
2022-10-12T01:03:45.578Z,101800.94
2022-10-12T01:06:12.149Z,101759.47
2022-10-12T01:08:38.892Z,101794.38
2022-10-12T01:11:06.279Z,101755.78
2022-10-12T01:13:32.893Z,101794.88
2022-10-12T01:16:25.028Z,101808.16
2022-10-12T01:19:12.825Z,101802.28
2022-10-12T01:21:44.666Z,101789.06
2022-10-12T01:25:02.278Z,101743.97
2022-10-12T01:27:50.386Z,101714.63
2022-10-12T01:30:33.660Z,101733.94
2022-10-12T01:33:00.041Z,101781.38
2022-10-12T01:35:54.702Z,101780.72
2022-10-12T01:38:44.222Z,101777.66
2022-10-12T01:41:30.387Z,101779.09
2022-10-12T01:43:57.173Z,101703.63
2022-10-12T01:46:23.576Z,101775.78
2022-10-12T01:48:53.056Z,101775.66
2022-10-12T01:51:27.300Z,101773.84
2022-10-12T01:54:49.306Z,101779.38
2022-10-12T01:57:46.572Z,101771.34
2022-10-12T02:00:15.548Z,101775.03
2022-10-12T02:02:59.415Z,101775.19
2022-10-12T02:05:39.505Z,101769.72
2022-10-12T02:08:11.654Z,101739.81
2022-10-12T02:11:08.373Z,101765.16
2022-10-12T02:13:39.079Z,101780.69
2022-10-12T02:16:10.822Z,101683.50
2022-10-12T02:18:40.316Z,101750.81
2022-10-12T02:21:07.795Z,101765.63
2022-10-12T02:23:35.122Z,101720.78
2022-10-12T02:26:01.995Z,101714.63
2022-10-12T02:28:29.798Z,101753.03
2022-10-12T02:31:04.205Z,101752.06
2022-10-12T02:33:36.832Z,101742.69
2022-10-12T02:36:09.124Z,101733.84
2022-10-12T02:38:39.719Z,101718.59
2022-10-12T02:41:09.744Z,101735.66
2022-10-12T02:43:43.311Z,101734.25
2022-10-12T02:46:11.353Z,101687.00
2022-10-12T02:48:41.798Z,101703.25
2022-10-12T02:51:09.640Z,101680.34
2022-10-12T02:53:36.213Z,101640.88
2022-10-12T02:56:09.881Z,101728.88
2022-10-12T02:58:36.715Z,101723.25
2022-10-12T03:01:03.282Z,101730.75
2022-10-12T03:03:29.800Z,101707.81
2022-10-12T03:05:56.344Z,101729.19
2022-10-12T03:08:22.855Z,101681.91
2022-10-12T03:10:49.398Z,101707.66
2022-10-12T03:13:15.832Z,101658.03
2022-10-12T03:15:42.519Z,101685.19
2022-10-12T03:18:09.018Z,101667.88
2022-10-12T03:20:35.454Z,101682.59
2022-10-12T03:23:02.110Z,101705.34
2022-10-12T03:25:28.700Z,101687.47
2022-10-12T03:27:55.162Z,101688.16
2022-10-12T03:30:21.609Z,101695.66
2022-10-12T03:32:48.475Z,101693.94
2022-10-12T03:35:15.739Z,101715.53
2022-10-12T03:37:42.218Z,101597.06
2022-10-12T03:40:09.533Z,101552.66
2022-10-12T03:42:35.997Z,101672.47
2022-10-12T03:45:02.890Z,101716.34
2022-10-12T03:47:29.511Z,101702.84
2022-10-12T03:49:56.051Z,101703.06
2022-10-12T03:52:22.584Z,101705.59
2022-10-12T03:54:49.000Z,101703.03
2022-10-12T03:57:15.686Z,101694.28
2022-10-12T03:59:42.141Z,101658.66
2022-10-12T04:02:11.061Z,101695.38
2022-10-12T04:04:40.893Z,101650.88
2022-10-12T04:07:07.766Z,101654.69
2022-10-12T04:09:34.357Z,101626.06
2022-10-12T04:12:00.808Z,101629.53
2022-10-12T04:14:27.288Z,101658.47
2022-10-12T04:16:54.541Z,101619.97
2022-10-12T04:19:21.161Z,101625.72
2022-10-12T04:21:47.921Z,101682.34
2022-10-12T04:24:14.421Z,101665.09
2022-10-12T04:26:40.983Z,101678.84
2022-10-12T04:29:07.423Z,101622.63
2022-10-12T04:31:33.935Z,101683.28
2022-10-12T04:34:00.742Z,101634.22
2022-10-12T04:36:27.501Z,101645.16
2022-10-12T04:38:58.468Z,101676.66
2022-10-12T04:41:27.257Z,101681.34
2022-10-12T04:43:54.077Z,101643.16
2022-10-12T04:46:20.570Z,101670.88
2022-10-12T04:48:47.474Z,101675.16
2022-10-12T04:51:13.934Z,101680.78
2022-10-12T04:53:40.417Z,101625.94
2022-10-12T04:56:07.295Z,101679.41
2022-10-12T04:58:33.763Z,101678.66
2022-10-12T05:01:00.337Z,101671.94
2022-10-12T05:03:26.835Z,101623.31
2022-10-12T05:05:53.291Z,101661.66
2022-10-12T05:08:20.033Z,101617.44
2022-10-12T05:10:47.089Z,101659.09
2022-10-12T05:13:14.303Z,101669.78
2022-10-12T05:15:44.316Z,101618.03
2022-10-12T05:18:10.992Z,101676.00
2022-10-12T05:20:37.835Z,101621.78
2022-10-12T05:23:04.427Z,101664.94
2022-10-12T05:25:31.081Z,101650.19
2022-10-12T05:27:57.832Z,101648.91
2022-10-12T05:30:24.424Z,101648.75
2022-10-12T05:32:51.658Z,101660.69
2022-10-12T05:35:18.138Z,101620.00
2022-10-12T05:37:44.627Z,101660.72
2022-10-12T05:40:11.431Z,101609.72
2022-10-12T05:42:38.304Z,101631.84
2022-10-12T05:45:05.742Z,101648.69
2022-10-12T05:47:32.194Z,101649.25
2022-10-12T05:49:58.728Z,101619.00
2022-10-12T05:52:26.730Z,101634.81
2022-10-12T05:54:53.224Z,101664.69
2022-10-12T05:57:19.981Z,101611.09
2022-10-12T05:59:46.546Z,101654.56
2022-10-12T06:02:14.985Z,101669.28
2022-10-12T06:04:41.938Z,101643.59
2022-10-12T06:07:08.707Z,101614.22
2022-10-12T06:09:38.770Z,101670.94
2022-10-12T06:12:08.924Z,101656.81
2022-10-12T06:14:35.987Z,101638.09
2022-10-12T06:17:02.507Z,101625.63
2022-10-12T06:19:28.922Z,101672.09
2022-10-12T06:21:55.666Z,101655.81
2022-10-12T06:24:22.348Z,101668.06
2022-10-12T06:26:49.056Z,101673.84
2022-10-12T06:29:15.514Z,101646.38
2022-10-12T06:31:42.024Z,101686.84
2022-10-12T06:34:08.738Z,101684.66
2022-10-12T06:36:35.347Z,101648.09
2022-10-12T06:39:01.878Z,101680.69
2022-10-12T06:41:28.752Z,101683.25
2022-10-12T06:43:55.211Z,101625.69
2022-10-12T06:46:22.619Z,101686.25
2022-10-12T06:48:49.150Z,101689.66
2022-10-12T06:51:15.789Z,101691.63
2022-10-12T06:53:42.659Z,101652.75
2022-10-12T06:56:10.380Z,101650.75
2022-10-12T06:58:36.996Z,101586.94
2022-10-12T07:01:04.865Z,101688.50
2022-10-12T07:03:32.367Z,101682.47
2022-10-12T07:06:10.199Z,101683.81
2022-10-12T07:08:36.802Z,101683.34
2022-10-12T07:11:04.784Z,101668.75
2022-10-12T07:13:41.277Z,101673.69
2022-10-12T07:16:08.426Z,101526.09
2022-10-12T07:18:35.281Z,101636.28
2022-10-12T07:21:02.868Z,101657.66
2022-10-12T07:23:33.867Z,101603.25
2022-10-12T07:26:01.083Z,101667.13
2022-10-12T07:28:27.809Z,101646.78
2022-10-12T07:30:54.343Z,101663.34
2022-10-12T07:33:20.825Z,101624.38
2022-10-12T07:36:13.481Z,101607.31
2022-10-12T07:38:50.157Z,101640.94
2022-10-12T07:41:27.476Z,101667.63
2022-10-12T07:43:56.532Z,101603.31
2022-10-12T07:46:25.223Z,101662.03
2022-10-12T07:48:52.137Z,101600.84
2022-10-12T07:51:19.103Z,101643.63
2022-10-12T07:53:45.896Z,101651.03
2022-10-12T07:56:15.276Z,101619.81
2022-10-12T07:58:43.151Z,101659.38
2022-10-12T08:01:10.638Z,101662.28
2022-10-12T08:03:37.350Z,101658.56
2022-10-12T08:06:15.797Z,101621.09
2022-10-12T08:08:42.331Z,101667.91
2022-10-12T08:11:10.229Z,101664.13
2022-10-12T08:13:37.639Z,101669.47
2022-10-12T08:16:06.247Z,101663.34
2022-10-12T08:18:33.094Z,101605.44
2022-10-12T08:20:59.566Z,101658.16
2022-10-12T08:23:26.105Z,101628.72
2022-10-12T08:25:54.090Z,101644.34
2022-10-12T08:28:20.696Z,101661.97
2022-10-12T08:30:47.252Z,101661.97
2022-10-12T08:33:15.134Z,101663.53
2022-10-12T08:35:42.311Z,101661.66
2022-10-12T08:38:11.327Z,101657.47
2022-10-12T08:41:00.908Z,101661.44
2022-10-12T08:43:33.373Z,101659.44
2022-10-12T08:46:02.747Z,101658.38
2022-10-12T08:48:32.174Z,101650.69
2022-10-12T08:51:04.500Z,101605.34
2022-10-12T08:53:35.739Z,101644.97
2022-10-12T08:56:02.243Z,101611.25
2022-10-12T08:58:35.894Z,101633.47
2022-10-12T09:01:16.499Z,101630.78
2022-10-12T09:04:28.290Z,101641.66
2022-10-12T09:07:00.814Z,101603.09
2022-10-12T09:10:09.823Z,101595.06
2022-10-12T09:12:36.862Z,101613.63
2022-10-12T09:15:09.806Z,101649.47
2022-10-12T09:17:40.903Z,101638.78
2022-10-12T09:20:17.738Z,101609.34
2022-10-12T09:22:49.003Z,101643.34
2022-10-12T09:25:17.147Z,101640.00
2022-10-12T09:27:46.641Z,101638.00
2022-10-12T09:30:15.487Z,101642.44
2022-10-12T09:32:59.098Z,101630.94
2022-10-12T09:35:25.691Z,101570.06
2022-10-12T09:37:54.426Z,101595.16
2022-10-12T09:40:33.196Z,101610.22
2022-10-12T09:43:01.153Z,101599.50
2022-10-12T09:45:31.056Z,101589.22
2022-10-12T09:48:20.188Z,101598.34
2022-10-12T09:50:50.850Z,101591.47
2022-10-12T09:53:35.435Z,101584.72
2022-10-12T09:56:10.765Z,101583.53
2022-10-12T09:58:43.593Z,101584.19
2022-10-12T10:01:34.870Z,101564.53
2022-10-12T10:04:15.977Z,101587.88
2022-10-12T10:06:45.090Z,101571.72
2022-10-12T10:09:33.442Z,101579.91
2022-10-12T10:12:24.367Z,101573.44
2022-10-12T10:14:55.120Z,101574.69
2022-10-12T10:17:33.818Z,101561.44
2022-10-12T10:20:04.044Z,101565.16
2022-10-12T10:22:30.780Z,101558.59
2022-10-12T10:25:00.532Z,101541.97
2022-10-12T10:27:32.672Z,101569.88
2022-10-12T10:30:35.084Z,101561.81
2022-10-12T10:33:15.978Z,101525.97
2022-10-12T10:35:54.787Z,101546.47
2022-10-12T10:38:21.325Z,101518.44
2022-10-12T10:40:56.969Z,101559.13
2022-10-12T10:43:31.809Z,101546.72
2022-10-12T10:46:01.120Z,101562.75
2022-10-12T10:48:38.396Z,101542.78
2022-10-12T10:51:05.782Z,101546.91
2022-10-12T10:53:43.634Z,101559.41
2022-10-12T10:56:31.175Z,101545.34
2022-10-12T10:59:05.332Z,101552.03
2022-10-12T11:01:39.139Z,101530.09
2022-10-12T11:04:16.822Z,101538.69
2022-10-12T11:06:52.583Z,101521.91
2022-10-12T11:09:42.521Z,101520.78
2022-10-12T11:12:14.556Z,101499.75
2022-10-12T11:14:44.969Z,101542.19
2022-10-12T11:17:50.124Z,101529.13
2022-10-12T11:20:37.923Z,101535.88
2022-10-12T11:23:27.512Z,101527.63
2022-10-12T11:26:18.665Z,101523.34
2022-10-12T11:28:45.546Z,101505.34
2022-10-12T11:31:24.642Z,101517.31
2022-10-12T11:33:52.447Z,101495.16
2022-10-12T11:36:22.600Z,101516.94
2022-10-12T11:39:05.912Z,101511.81
2022-10-12T11:42:03.222Z,101508.44
2022-10-12T11:44:42.280Z,101497.06
2022-10-12T11:47:20.678Z,101500.69
2022-10-12T11:50:21.152Z,101490.47
2022-10-12T11:52:50.921Z,101487.34
2022-10-12T11:55:51.668Z,101490.34
2022-10-12T11:58:59.893Z,101479.38
2022-10-12T12:01:56.786Z,101474.13
2022-10-12T12:04:42.236Z,101475.97
2022-10-12T12:07:47.714Z,101480.53
2022-10-12T12:10:26.544Z,101481.50
2022-10-12T12:13:11.203Z,101487.81
2022-10-12T12:16:01.180Z,101468.94
2022-10-12T12:18:34.906Z,101486.78
2022-10-12T12:21:07.240Z,101494.94
2022-10-12T12:23:42.609Z,101485.41
2022-10-12T12:26:16.522Z,101492.91
2022-10-12T12:28:51.752Z,101486.94
2022-10-12T12:31:25.935Z,101483.44
2022-10-12T12:34:01.734Z,101492.69
2022-10-12T12:36:30.651Z,101481.00
2022-10-12T12:38:57.652Z,101476.41
2022-10-12T12:41:54.038Z,101471.56
2022-10-12T12:44:42.382Z,101444.09
2022-10-12T12:47:43.491Z,101472.78
2022-10-12T12:50:00.870Z,101457.19
2022-10-12T12:52:29.877Z,101457.06
2022-10-12T12:55:14.508Z,101462.84
2022-10-12T12:57:47.251Z,101434.84
2022-10-12T13:00:26.691Z,101462.66
2022-10-12T13:03:05.236Z,101467.50
2022-10-12T13:06:12.967Z,101459.03
2022-10-12T13:08:48.543Z,101471.38
2022-10-12T13:11:27.779Z,101429.91
2022-10-12T13:14:06.407Z,101461.94
2022-10-12T13:17:29.977Z,101455.50
2022-10-12T13:19:25.687Z,101414.22
2022-10-12T13:21:54.840Z,101456.78
2022-10-12T13:24:28.006Z,101428.38
2022-10-12T13:26:57.336Z,101464.69
2022-10-12T13:29:36.404Z,101446.13
2022-10-12T13:32:07.363Z,101441.44
2022-10-12T13:34:42.305Z,101440.66
2022-10-12T13:37:14.404Z,101436.56
2022-10-12T13:39:44.776Z,101443.88
2022-10-12T13:42:15.690Z,101434.63
2022-10-12T13:44:42.466Z,101384.91
2022-10-12T13:47:29.752Z,101421.91
2022-10-12T13:49:57.045Z,101417.91
2022-10-12T13:52:32.449Z,101412.88
2022-10-12T13:54:59.975Z,101374.66
2022-10-12T13:57:42.093Z,101410.88
2022-10-12T14:00:10.066Z,101409.69
2022-10-12T14:02:36.740Z,101402.97
2022-10-12T14:05:06.312Z,101348.09
2022-10-12T14:07:35.759Z,101391.94
2022-10-12T14:10:06.760Z,101371.44
2022-10-12T14:12:35.796Z,101315.53
2022-10-12T14:15:03.064Z,101397.47
2022-10-12T14:17:29.850Z,101391.09
2022-10-12T14:19:59.724Z,101386.19
2022-10-12T14:22:29.026Z,101391.81
2022-10-12T14:25:23.759Z,101390.88
2022-10-12T14:28:01.367Z,101362.72
2022-10-12T14:30:34.863Z,101378.34
2022-10-12T14:33:16.623Z,101373.41
2022-10-12T14:35:47.860Z,101375.75
2022-10-12T14:38:37.577Z,101371.97
2022-10-12T14:41:38.999Z,101378.38
2022-10-12T14:44:17.711Z,101377.00
2022-10-12T14:46:50.399Z,101375.72
2022-10-12T14:49:25.844Z,101243.16
2022-10-12T14:51:54.262Z,101380.00
2022-10-12T14:54:21.506Z,101368.75
2022-10-12T14:56:49.128Z,101310.19
2022-10-12T14:59:15.684Z,101320.94
2022-10-12T15:01:45.218Z,101368.38
2022-10-12T15:04:14.211Z,101326.06
2022-10-12T15:06:40.910Z,101358.06
2022-10-12T15:09:09.691Z,101343.06
2022-10-12T15:11:36.162Z,101306.25
2022-10-12T15:14:02.631Z,101277.75
2022-10-12T15:16:29.330Z,101352.53
2022-10-12T15:18:55.807Z,101327.19
2022-10-12T15:21:22.252Z,101349.28
2022-10-12T15:23:49.309Z,101330.72
2022-10-12T15:26:17.394Z,101325.06
2022-10-12T15:28:44.567Z,101297.66
2022-10-12T15:31:17.609Z,101344.03
2022-10-12T15:33:45.028Z,101230.47
2022-10-12T15:36:11.599Z,101240.44
2022-10-12T15:38:38.453Z,101297.38
2022-10-12T15:41:05.046Z,101285.09
2022-10-12T15:43:33.673Z,101300.25
2022-10-12T15:46:02.396Z,101329.34
2022-10-12T15:48:29.037Z,101329.28
2022-10-12T15:50:55.529Z,101329.44
2022-10-12T15:53:25.805Z,101329.75
2022-10-12T15:55:55.813Z,101314.06
2022-10-12T15:58:22.809Z,101303.09
2022-10-12T16:00:49.621Z,101329.13
2022-10-12T16:03:24.553Z,101323.56
2022-10-12T16:05:51.983Z,101301.41
2022-10-12T16:08:18.467Z,101281.75
2022-10-12T16:10:46.109Z,101284.28
2022-10-12T16:13:13.595Z,101285.72
2022-10-12T16:15:40.753Z,101322.03
2022-10-12T16:18:07.643Z,101318.75
2022-10-12T16:20:38.910Z,101309.22
2022-10-12T16:23:08.760Z,101303.25
2022-10-12T16:25:35.996Z,101326.56
2022-10-12T16:28:02.562Z,101273.50
2022-10-12T16:30:29.138Z,101323.72
2022-10-12T16:32:55.622Z,101320.66
2022-10-12T16:35:22.319Z,101315.34
2022-10-12T16:37:48.847Z,101324.28
2022-10-12T16:40:15.784Z,101323.25
2022-10-12T16:42:42.341Z,101324.44
2022-10-12T16:45:09.265Z,101297.31
2022-10-12T16:47:40.429Z,101325.78
2022-10-12T16:50:10.111Z,101320.13
2022-10-12T16:52:36.739Z,101261.91
2022-10-12T16:55:04.515Z,101322.06
2022-10-12T16:57:31.032Z,101322.91
2022-10-12T16:59:58.630Z,101292.50
2022-10-12T17:02:27.223Z,101312.28
2022-10-12T17:04:53.838Z,101314.34
2022-10-12T17:07:20.368Z,101316.34
2022-10-12T17:09:46.917Z,101187.63
2022-10-12T17:12:13.761Z,101346.91
2022-10-12T17:14:40.525Z,101294.75
2022-10-12T17:17:07.085Z,101336.25
2022-10-12T17:19:37.158Z,101329.69
2022-10-12T17:22:06.315Z,101339.03
2022-10-12T17:24:34.868Z,101345.59
2022-10-12T17:27:01.875Z,101284.41
2022-10-12T17:29:29.838Z,101350.94
2022-10-12T17:31:57.498Z,101315.28
2022-10-12T17:34:35.843Z,101337.66
2022-10-12T17:37:03.643Z,101284.72
2022-10-12T17:39:32.445Z,101321.25
2022-10-12T17:41:59.160Z,101335.03
2022-10-12T17:44:25.750Z,101347.34
2022-10-12T17:46:52.570Z,101348.47
2022-10-12T17:49:24.442Z,101355.97
2022-10-12T17:51:51.585Z,101336.03
2022-10-12T17:54:19.243Z,101321.50
2022-10-12T17:56:45.813Z,101367.09
2022-10-12T17:59:15.732Z,101359.06
2022-10-12T18:01:42.247Z,101359.75
2022-10-12T18:04:10.999Z,101354.41
2022-10-12T18:06:38.024Z,101367.69
2022-10-12T18:09:05.734Z,101381.38
2022-10-12T18:11:33.811Z,101369.22
2022-10-12T18:14:00.410Z,101359.94
2022-10-12T18:16:32.902Z,101340.75
2022-10-12T18:19:01.199Z,101361.06
2022-10-12T18:21:29.630Z,101299.16
2022-10-12T18:23:56.466Z,101332.59
2022-10-12T18:26:23.112Z,101332.16
2022-10-12T18:28:50.319Z,101373.34
2022-10-12T18:31:25.032Z,101360.78
2022-10-12T18:33:52.866Z,101362.66
2022-10-12T18:36:20.122Z,101377.94
2022-10-12T18:38:46.786Z,101370.63
2022-10-12T18:41:17.143Z,101345.81
2022-10-12T18:43:43.635Z,101369.34
2022-10-12T18:46:12.441Z,101364.94
2022-10-12T18:48:39.221Z,101369.34
2022-10-12T18:51:17.859Z,101366.59
2022-10-12T18:53:46.287Z,101363.47
2022-10-12T18:56:13.713Z,101348.00
2022-10-12T18:58:41.943Z,101356.44
2022-10-12T19:01:11.644Z,101362.94
2022-10-12T19:03:38.905Z,101359.50
2022-10-12T19:06:13.663Z,101358.66
2022-10-12T19:08:40.582Z,101361.78
2022-10-12T19:11:08.261Z,101355.31
2022-10-12T19:13:39.074Z,101333.22
2022-10-12T19:16:06.658Z,101357.47
2022-10-12T19:18:33.478Z,101324.31
2022-10-12T19:21:08.740Z,101347.91
2022-10-12T19:23:35.594Z,101339.28
2022-10-12T19:26:04.615Z,101341.88
2022-10-12T19:28:33.862Z,101313.66
2022-10-12T19:31:01.346Z,101292.81
2022-10-12T19:33:29.047Z,101334.72
2022-10-12T19:35:58.397Z,101307.47
2022-10-12T19:38:25.040Z,101305.16
2022-10-12T19:40:51.950Z,101335.09
2022-10-12T19:43:18.511Z,101265.66
2022-10-12T19:45:45.024Z,101257.00
2022-10-12T19:48:11.897Z,101308.66
2022-10-12T19:50:38.631Z,101332.63
2022-10-12T19:53:05.798Z,101292.53
2022-10-12T19:55:33.980Z,101330.88
2022-10-12T19:58:03.261Z,101243.31
2022-10-12T20:00:32.647Z,101278.19
2022-10-12T20:02:59.107Z,101308.88
2022-10-12T20:05:25.745Z,101318.44
2022-10-12T20:07:52.364Z,101259.84
2022-10-12T20:10:19.011Z,101328.31
2022-10-12T20:12:45.661Z,101303.03
2022-10-12T20:15:12.619Z,101322.66
2022-10-12T20:17:39.317Z,101256.81
2022-10-12T20:20:06.754Z,101322.84
2022-10-12T20:22:33.930Z,101290.22
2022-10-12T20:25:00.955Z,101318.28
2022-10-12T20:27:27.608Z,101280.31
2022-10-12T20:29:54.354Z,101291.66
2022-10-12T20:32:20.987Z,101333.28
2022-10-12T20:34:52.120Z,101270.00
2022-10-12T20:37:21.506Z,101271.09
2022-10-12T20:39:51.887Z,101325.53
2022-10-12T20:42:21.915Z,101328.72
2022-10-12T20:44:49.419Z,101263.34
2022-10-12T20:47:16.153Z,101295.94
2022-10-12T20:49:42.743Z,101296.47
2022-10-12T20:52:09.580Z,101307.91
2022-10-12T20:54:37.020Z,101301.28
2022-10-12T20:57:04.919Z,101318.09
2022-10-12T20:59:31.623Z,101266.03
2022-10-12T21:01:59.165Z,101316.09
2022-10-12T21:04:26.234Z,101256.78
2022-10-12T21:06:53.179Z,101310.34
2022-10-12T21:09:20.163Z,101299.84
2022-10-12T21:11:46.738Z,101331.06
2022-10-12T21:14:13.684Z,101255.72
2022-10-12T21:16:40.249Z,101318.53
2022-10-12T21:19:06.690Z,101330.97
2022-10-12T21:21:33.111Z,101293.78
2022-10-12T21:24:00.738Z,101300.41
2022-10-12T21:26:29.642Z,101321.38
2022-10-12T21:28:56.323Z,101320.78
2022-10-12T21:31:25.179Z,101269.94
2022-10-12T21:33:53.695Z,101296.69
2022-10-12T21:36:22.491Z,101263.59
2022-10-12T21:38:50.214Z,101239.66
2022-10-12T21:41:19.126Z,101305.13
2022-10-12T21:43:46.181Z,101308.00
2022-10-12T21:46:15.755Z,101307.63
2022-10-12T21:48:42.713Z,101303.16
2022-10-12T21:51:09.676Z,101303.19
2022-10-12T21:53:37.254Z,101297.00
2022-10-12T21:56:14.244Z,101244.22
2022-10-12T21:58:40.829Z,101306.69
2022-10-12T22:01:09.807Z,101299.06
2022-10-12T22:03:36.834Z,101256.38
2022-10-12T22:06:03.991Z,101264.25
2022-10-12T22:08:30.706Z,101226.03
2022-10-12T22:10:57.360Z,101228.38
2022-10-12T22:13:23.899Z,101297.75
2022-10-12T22:16:04.063Z,101241.78
2022-10-12T22:18:30.537Z,101296.25
2022-10-12T22:20:57.000Z,101300.63
2022-10-12T22:23:23.689Z,101216.84
2022-10-12T22:25:50.544Z,101288.25
2022-10-12T22:28:17.258Z,101228.47
2022-10-12T22:30:43.712Z,101245.91
2022-10-12T22:33:10.195Z,101295.31
2022-10-12T22:35:36.723Z,101216.41
2022-10-12T22:38:03.214Z,101244.41
2022-10-12T22:40:29.695Z,101190.03
2022-10-12T22:42:56.170Z,101289.97
2022-10-12T22:45:28.032Z,101290.94
2022-10-12T22:47:54.811Z,101227.22
2022-10-12T22:50:21.294Z,101227.19
2022-10-12T22:52:47.776Z,101229.81
2022-10-12T22:55:14.374Z,101189.75
2022-10-12T22:57:40.804Z,101273.25
2022-10-12T23:00:08.031Z,101237.41
2022-10-12T23:02:34.511Z,101273.13
2022-10-12T23:05:01.005Z,101254.47
2022-10-12T23:07:27.473Z,101249.63
2022-10-12T23:09:53.909Z,101283.91
2022-10-12T23:12:20.905Z,101231.22
2022-10-12T23:14:47.566Z,101225.94
2022-10-12T23:17:14.042Z,101268.31
2022-10-12T23:19:40.610Z,101279.56
2022-10-12T23:22:08.130Z,101267.94
2022-10-12T23:24:34.574Z,101276.41
2022-10-12T23:27:01.073Z,101192.63
2022-10-12T23:29:27.600Z,101209.69
2022-10-12T23:31:54.083Z,101197.47
2022-10-12T23:34:20.594Z,101217.31
2022-10-12T23:36:47.077Z,101207.88
2022-10-12T23:39:16.823Z,101211.50
2022-10-12T23:41:43.350Z,101258.47
2022-10-12T23:44:09.812Z,101253.00
2022-10-12T23:46:36.273Z,101207.41
2022-10-12T23:49:02.790Z,101216.84
2022-10-12T23:51:29.262Z,101260.03
2022-10-12T23:53:55.896Z,101247.81
2022-10-12T23:56:22.389Z,101257.75
2022-10-12T23:58:49.007Z,101197.94
